sensor_id;sensor_type;location;lat;lon;timestamp;pressure;altitude;pressure_sealevel;temperature;humidity
11936;BME280;6027;48.576;9.180;2023-03-18T00:00:38;96449.25;;;10.75;65.13
11936;BME280;6027;48.576;9.180;2023-03-18T00:03:04;96444.69;;;10.62;66.74
11936;BME280;6027;48.576;9.180;2023-03-18T00:05:31;96452.34;;;10.50;67.94
11936;BME280;6027;48.576;9.180;2023-03-18T00:07:59;96444.97;;;10.46;68.25
11936;BME280;6027;48.576;9.180;2023-03-18T00:10:24;96450.81;;;10.41;69.38
11936;BME280;6027;48.576;9.180;2023-03-18T00:12:50;96454.75;;;10.24;71.12
11936;BME280;6027;48.576;9.180;2023-03-18T00:15:18;96449.59;;;10.16;71.82
11936;BME280;6027;48.576;9.180;2023-03-18T00:17:44;96445.47;;;10.13;71.87
11936;BME280;6027;48.576;9.180;2023-03-18T00:20:11;96443.13;;;10.03;73.04
11936;BME280;6027;48.576;9.180;2023-03-18T00:22:39;96449.38;;;9.96;73.99
11936;BME280;6027;48.576;9.180;2023-03-18T00:25:07;96448.56;;;9.95;74.48
11936;BME280;6027;48.576;9.180;2023-03-18T00:27:33;96457.81;;;9.85;75.00
11936;BME280;6027;48.576;9.180;2023-03-18T00:30:00;96455.06;;;9.93;75.33
11936;BME280;6027;48.576;9.180;2023-03-18T00:32:26;96446.41;;;9.84;76.12
11936;BME280;6027;48.576;9.180;2023-03-18T00:34:53;96456.06;;;9.92;76.19
11936;BME280;6027;48.576;9.180;2023-03-18T00:37:19;96455.97;;;9.85;76.77
11936;BME280;6027;48.576;9.180;2023-03-18T00:40:06;96456.88;;;9.92;76.55
11936;BME280;6027;48.576;9.180;2023-03-18T00:42:36;96457.97;;;9.98;75.84
11936;BME280;6027;48.576;9.180;2023-03-18T00:45:13;96466.53;;;10.00;75.33
11936;BME280;6027;48.576;9.180;2023-03-18T00:47:38;96470.00;;;10.00;75.20
11936;BME280;6027;48.576;9.180;2023-03-18T00:50:05;96471.38;;;9.82;77.23
11936;BME280;6027;48.576;9.180;2023-03-18T00:52:32;96462.03;;;9.79;76.70
11936;BME280;6027;48.576;9.180;2023-03-18T00:54:59;96468.16;;;9.80;76.24
11936;BME280;6027;48.576;9.180;2023-03-18T00:57:25;96467.50;;;9.78;76.19
11936;BME280;6027;48.576;9.180;2023-03-18T00:59:51;96472.44;;;9.81;76.11
11936;BME280;6027;48.576;9.180;2023-03-18T01:02:18;96472.22;;;9.61;77.15
11936;BME280;6027;48.576;9.180;2023-03-18T01:04:43;96482.69;;;9.54;77.35
11936;BME280;6027;48.576;9.180;2023-03-18T01:07:09;96475.84;;;9.60;76.99
11936;BME280;6027;48.576;9.180;2023-03-18T01:09:36;96481.69;;;9.55;78.11
11936;BME280;6027;48.576;9.180;2023-03-18T01:12:06;96487.16;;;9.54;78.92
11936;BME280;6027;48.576;9.180;2023-03-18T01:14:32;96485.88;;;9.50;80.61
11936;BME280;6027;48.576;9.180;2023-03-18T01:16:58;96480.91;;;9.40;81.47
11936;BME280;6027;48.576;9.180;2023-03-18T01:19:24;96482.44;;;9.34;81.73
11936;BME280;6027;48.576;9.180;2023-03-18T01:21:51;96482.16;;;9.44;81.41
11936;BME280;6027;48.576;9.180;2023-03-18T01:24:16;96492.16;;;9.49;80.86
11936;BME280;6027;48.576;9.180;2023-03-18T01:26:41;96477.78;;;9.51;80.44
11936;BME280;6027;48.576;9.180;2023-03-18T01:29:08;96476.03;;;9.58;79.81
11936;BME280;6027;48.576;9.180;2023-03-18T01:31:35;96477.28;;;9.62;79.96
11936;BME280;6027;48.576;9.180;2023-03-18T01:34:00;96477.53;;;9.67;79.61
11936;BME280;6027;48.576;9.180;2023-03-18T01:36:26;96464.16;;;9.69;78.87
11936;BME280;6027;48.576;9.180;2023-03-18T01:38:52;96465.41;;;9.73;78.35
11936;BME280;6027;48.576;9.180;2023-03-18T01:41:17;96464.88;;;9.78;77.03
11936;BME280;6027;48.576;9.180;2023-03-18T01:46:34;96462.41;;;9.76;76.06
11936;BME280;6027;48.576;9.180;2023-03-18T01:49:03;96464.69;;;9.79;75.88
11936;BME280;6027;48.576;9.180;2023-03-18T01:51:29;96470.38;;;9.83;75.40
11936;BME280;6027;48.576;9.180;2023-03-18T01:53:57;96466.59;;;9.70;76.50
11936;BME280;6027;48.576;9.180;2023-03-18T01:56:24;96475.28;;;9.64;77.17
11936;BME280;6027;48.576;9.180;2023-03-18T01:58:53;96473.91;;;9.68;77.42
11936;BME280;6027;48.576;9.180;2023-03-18T02:01:26;96475.28;;;9.64;77.57
11936;BME280;6027;48.576;9.180;2023-03-18T02:03:54;96471.91;;;9.70;76.44
11936;BME280;6027;48.576;9.180;2023-03-18T02:06:21;96468.88;;;9.74;76.70
11936;BME280;6027;48.576;9.180;2023-03-18T02:08:46;96462.78;;;9.73;76.19
11936;BME280;6027;48.576;9.180;2023-03-18T02:11:13;96461.97;;;9.73;76.27
11936;BME280;6027;48.576;9.180;2023-03-18T02:13:41;96466.25;;;9.74;76.44
11936;BME280;6027;48.576;9.180;2023-03-18T02:16:16;96462.69;;;9.66;76.38
11936;BME280;6027;48.576;9.180;2023-03-18T02:18:48;96465.59;;;9.72;76.06
11936;BME280;6027;48.576;9.180;2023-03-18T02:24:37;96467.78;;;9.68;75.69
11936;BME280;6027;48.576;9.180;2023-03-18T02:29:45;96463.03;;;9.42;76.48
11936;BME280;6027;48.576;9.180;2023-03-18T02:32:12;96475.41;;;9.56;76.06
11936;BME280;6027;48.576;9.180;2023-03-18T02:34:40;96474.63;;;9.41;76.32
11936;BME280;6027;48.576;9.180;2023-03-18T02:37:07;96453.84;;;9.09;77.74
11936;BME280;6027;48.576;9.180;2023-03-18T02:39:33;96489.28;;;9.29;77.40
11936;BME280;6027;48.576;9.180;2023-03-18T02:41:59;96487.28;;;9.16;77.74
11936;BME280;6027;48.576;9.180;2023-03-18T02:44:25;96484.81;;;9.29;76.79
11936;BME280;6027;48.576;9.180;2023-03-18T02:47:03;96475.69;;;9.32;76.02
11936;BME280;6027;48.576;9.180;2023-03-18T02:49:31;96478.69;;;9.29;74.27
11936;BME280;6027;48.576;9.180;2023-03-18T02:51:57;96484.53;;;9.24;73.93
11936;BME280;6027;48.576;9.180;2023-03-18T02:54:25;96481.53;;;9.27;73.86
11936;BME280;6027;48.576;9.180;2023-03-18T02:56:52;96486.91;;;9.34;73.23
11936;BME280;6027;48.576;9.180;2023-03-18T02:59:18;96488.81;;;9.40;73.91
11936;BME280;6027;48.576;9.180;2023-03-18T03:01:47;96480.91;;;9.40;73.49
11936;BME280;6027;48.576;9.180;2023-03-18T03:04:14;96471.88;;;9.34;72.63
11936;BME280;6027;48.576;9.180;2023-03-18T03:06:41;96466.84;;;9.25;72.35
11936;BME280;6027;48.576;9.180;2023-03-18T03:09:08;96469.06;;;9.21;73.07
11936;BME280;6027;48.576;9.180;2023-03-18T03:11:34;96472.59;;;9.28;72.32
11936;BME280;6027;48.576;9.180;2023-03-18T03:14:00;96480.81;;;9.33;73.06
11936;BME280;6027;48.576;9.180;2023-03-18T03:16:26;96486.63;;;9.29;72.18
11936;BME280;6027;48.576;9.180;2023-03-18T03:18:52;96488.28;;;9.30;71.28
11936;BME280;6027;48.576;9.180;2023-03-18T03:21:17;96485.81;;;9.28;70.69
11936;BME280;6027;48.576;9.180;2023-03-18T03:23:44;96487.00;;;9.26;69.62
11936;BME280;6027;48.576;9.180;2023-03-18T03:26:10;96486.91;;;9.34;68.18
11936;BME280;6027;48.576;9.180;2023-03-18T03:28:36;96493.72;;;9.28;69.24
11936;BME280;6027;48.576;9.180;2023-03-18T03:31:02;96489.09;;;9.30;70.03
11936;BME280;6027;48.576;9.180;2023-03-18T03:33:28;96501.84;;;9.27;70.63
11936;BME280;6027;48.576;9.180;2023-03-18T03:35:54;96496.84;;;9.17;72.76
11936;BME280;6027;48.576;9.180;2023-03-18T03:38:19;96498.56;;;9.25;72.85
11936;BME280;6027;48.576;9.180;2023-03-18T03:40:47;96493.72;;;9.28;72.43
11936;BME280;6027;48.576;9.180;2023-03-18T03:43:13;96499.78;;;9.22;72.37
11936;BME280;6027;48.576;9.180;2023-03-18T03:45:40;96501.84;;;9.27;72.06
11936;BME280;6027;48.576;9.180;2023-03-18T03:48:06;96515.69;;;9.29;71.48
11936;BME280;6027;48.576;9.180;2023-03-18T03:50:33;96510.88;;;9.18;72.35
11936;BME280;6027;48.576;9.180;2023-03-18T03:52:59;96506.47;;;9.25;71.65
11936;BME280;6027;48.576;9.180;2023-03-18T03:55:24;96503.22;;;9.23;71.70
11936;BME280;6027;48.576;9.180;2023-03-18T03:57:50;96495.84;;;9.18;72.09
11936;BME280;6027;48.576;9.180;2023-03-18T04:00:19;96503.94;;;9.17;71.82
11936;BME280;6027;48.576;9.180;2023-03-18T04:02:46;96501.13;;;9.18;70.61
11936;BME280;6027;48.576;9.180;2023-03-18T04:05:14;96494.09;;;9.11;70.68
11936;BME280;6027;48.576;9.180;2023-03-18T04:07:41;96500.03;;;9.13;70.56
11936;BME280;6027;48.576;9.180;2023-03-18T04:10:08;96503.59;;;9.20;70.41
11936;BME280;6027;48.576;9.180;2023-03-18T04:12:35;96501.31;;;9.17;70.88
11936;BME280;6027;48.576;9.180;2023-03-18T04:15:01;96497.50;;;9.19;70.11
11936;BME280;6027;48.576;9.180;2023-03-18T04:17:27;96502.66;;;9.13;70.54
11936;BME280;6027;48.576;9.180;2023-03-18T04:19:52;96494.28;;;9.09;69.62
11936;BME280;6027;48.576;9.180;2023-03-18T04:22:18;96497.28;;;9.06;69.55
11936;BME280;6027;48.576;9.180;2023-03-18T04:24:44;96495.03;;;9.03;69.74
11936;BME280;6027;48.576;9.180;2023-03-18T04:27:10;96498.94;;;9.07;69.24
11936;BME280;6027;48.576;9.180;2023-03-18T04:29:36;96499.75;;;9.08;69.02
11936;BME280;6027;48.576;9.180;2023-03-18T04:32:02;96492.28;;;9.11;68.93
11936;BME280;6027;48.576;9.180;2023-03-18T04:34:27;96503.50;;;9.13;68.71
11936;BME280;6027;48.576;9.180;2023-03-18T04:36:53;96513.22;;;9.13;68.34
11936;BME280;6027;48.576;9.180;2023-03-18T04:39:20;96500.03;;;9.13;69.18
11936;BME280;6027;48.576;9.180;2023-03-18T04:41:46;96511.13;;;9.08;68.61
11936;BME280;6027;48.576;9.180;2023-03-18T04:44:12;96508.50;;;9.08;68.89
11936;BME280;6027;48.576;9.180;2023-03-18T04:46:38;96508.25;;;9.03;69.58
11936;BME280;6027;48.576;9.180;2023-03-18T04:49:03;96509.13;;;8.95;70.03
11936;BME280;6027;48.576;9.180;2023-03-18T04:51:28;96507.31;;;8.96;70.07
11936;BME280;6027;48.576;9.180;2023-03-18T04:53:54;96507.50;;;8.94;70.04
11936;BME280;6027;48.576;9.180;2023-03-18T04:56:20;96521.41;;;8.88;70.28
11936;BME280;6027;48.576;9.180;2023-03-18T04:58:45;96514.88;;;8.84;70.86
11936;BME280;6027;48.576;9.180;2023-03-18T05:01:11;96509.59;;;8.84;71.48
11936;BME280;6027;48.576;9.180;2023-03-18T05:03:38;96511.09;;;8.64;71.73
11936;BME280;6027;48.576;9.180;2023-03-18T05:06:04;96511.53;;;8.68;71.84
11936;BME280;6027;48.576;9.180;2023-03-18T05:08:30;96510.44;;;8.62;72.69
11936;BME280;6027;48.576;9.180;2023-03-18T05:10:56;96501.59;;;8.55;73.05
11936;BME280;6027;48.576;9.180;2023-03-18T05:13:21;96500.75;;;8.40;74.21
11936;BME280;6027;48.576;9.180;2023-03-18T05:15:46;96500.69;;;8.25;74.66
11936;BME280;6027;48.576;9.180;2023-03-18T05:18:12;96508.22;;;8.28;75.33
11936;BME280;6027;48.576;9.180;2023-03-18T05:20:38;96508.19;;;8.36;74.58
11936;BME280;6027;48.576;9.180;2023-03-18T05:25:31;96513.47;;;8.28;75.28
11936;BME280;6027;48.576;9.180;2023-03-18T05:27:57;96503.97;;;8.27;75.10
11936;BME280;6027;48.576;9.180;2023-03-18T05:30:23;96508.41;;;8.26;74.83
11936;BME280;6027;48.576;9.180;2023-03-18T05:32:49;96513.13;;;8.08;75.59
11936;BME280;6027;48.576;9.180;2023-03-18T05:35:14;96511.91;;;7.96;76.80
11936;BME280;6027;48.576;9.180;2023-03-18T05:37:40;96524.34;;;7.87;77.75
11936;BME280;6027;48.576;9.180;2023-03-18T05:40:06;96518.34;;;7.93;77.92
11936;BME280;6027;48.576;9.180;2023-03-18T05:42:36;96518.25;;;7.87;77.31
11936;BME280;6027;48.576;9.180;2023-03-18T05:45:03;96513.25;;;7.92;76.50
11936;BME280;6027;48.576;9.180;2023-03-18T05:47:29;96496.13;;;7.65;78.08
11936;BME280;6027;48.576;9.180;2023-03-18T05:49:55;96506.56;;;7.81;78.27
11936;BME280;6027;48.576;9.180;2023-03-18T05:52:20;96513.34;;;7.76;78.92
11936;BME280;6027;48.576;9.180;2023-03-18T05:54:45;96521.13;;;7.69;80.44
11936;BME280;6027;48.576;9.180;2023-03-18T05:57:11;96515.66;;;7.71;80.79
11936;BME280;6027;48.576;9.180;2023-03-18T05:59:37;96519.91;;;7.80;79.81
11936;BME280;6027;48.576;9.180;2023-03-18T06:02:03;96516.63;;;7.78;79.24
11936;BME280;6027;48.576;9.180;2023-03-18T06:04:28;96514.66;;;7.80;78.03
11936;BME280;6027;48.576;9.180;2023-03-18T06:06:55;96517.63;;;7.77;78.57
11936;BME280;6027;48.576;9.180;2023-03-18T06:09:21;96516.13;;;7.82;80.33
11936;BME280;6027;48.576;9.180;2023-03-18T06:11:47;96519.25;;;7.78;78.27
11936;BME280;6027;48.576;9.180;2023-03-18T06:14:13;96521.56;;;7.81;77.62
11936;BME280;6027;48.576;9.180;2023-03-18T06:16:40;96517.28;;;7.80;77.90
11936;BME280;6027;48.576;9.180;2023-03-18T06:19:06;96524.88;;;7.75;78.22
11936;BME280;6027;48.576;9.180;2023-03-18T06:21:32;96525.38;;;7.70;78.12
11936;BME280;6027;48.576;9.180;2023-03-18T06:23:59;96535.66;;;7.65;78.52
11936;BME280;6027;48.576;9.180;2023-03-18T06:26:25;96533.19;;;7.63;78.98
11936;BME280;6027;48.576;9.180;2023-03-18T06:28:51;96532.69;;;7.68;79.26
11936;BME280;6027;48.576;9.180;2023-03-18T06:31:16;96538.22;;;7.73;79.42
11936;BME280;6027;48.576;9.180;2023-03-18T06:33:43;96542.25;;;7.61;80.15
11936;BME280;6027;48.576;9.180;2023-03-18T06:36:08;96545.69;;;7.70;80.00
11936;BME280;6027;48.576;9.180;2023-03-18T06:38:35;96547.34;;;7.62;80.57
11936;BME280;6027;48.576;9.180;2023-03-18T06:41:00;96543.56;;;7.65;81.58
11936;BME280;6027;48.576;9.180;2023-03-18T06:43:26;96553.75;;;7.68;81.27
11936;BME280;6027;48.576;9.180;2023-03-18T06:45:52;96542.03;;;7.71;80.59
11936;BME280;6027;48.576;9.180;2023-03-18T06:48:18;96549.75;;;7.72;80.43
11936;BME280;6027;48.576;9.180;2023-03-18T06:50:44;96550.56;;;7.73;80.74
11936;BME280;6027;48.576;9.180;2023-03-18T06:53:10;96544.97;;;7.76;80.67
11936;BME280;6027;48.576;9.180;2023-03-18T06:55:37;96555.00;;;7.80;80.64
11936;BME280;6027;48.576;9.180;2023-03-18T06:58:04;96547.56;;;7.84;80.13
11936;BME280;6027;48.576;9.180;2023-03-18T07:00:30;96550.88;;;7.86;79.81
11936;BME280;6027;48.576;9.180;2023-03-18T07:02:56;96550.03;;;7.85;80.93
11936;BME280;6027;48.576;9.180;2023-03-18T07:05:21;96553.59;;;7.92;80.30
11936;BME280;6027;48.576;9.180;2023-03-18T07:07:48;96551.13;;;7.91;79.11
11936;BME280;6027;48.576;9.180;2023-03-18T07:10:25;96553.59;;;7.92;78.38
11936;BME280;6027;48.576;9.180;2023-03-18T07:12:52;96555.38;;;8.00;77.75
11936;BME280;6027;48.576;9.180;2023-03-18T07:15:18;96551.25;;;8.06;79.35
11936;BME280;6027;48.576;9.180;2023-03-18T07:17:46;96553.97;;;8.12;79.98
11936;BME280;6027;48.576;9.180;2023-03-18T07:20:12;96555.94;;;8.18;81.05
11936;BME280;6027;48.576;9.180;2023-03-18T07:22:37;96557.88;;;8.24;81.95
11936;BME280;6027;48.576;9.180;2023-03-18T07:25:03;96558.56;;;8.18;85.29
11936;BME280;6027;48.576;9.180;2023-03-18T07:27:29;96560.13;;;8.27;86.15
11936;BME280;6027;48.576;9.180;2023-03-18T07:29:54;96558.16;;;8.29;86.48
11936;BME280;6027;48.576;9.180;2023-03-18T07:32:22;96561.69;;;8.22;88.79
11936;BME280;6027;48.576;9.180;2023-03-18T07:34:48;96567.81;;;8.14;90.66
11936;BME280;6027;48.576;9.180;2023-03-18T07:37:13;96561.41;;;8.09;91.46
11936;BME280;6027;48.576;9.180;2023-03-18T07:39:40;96561.16;;;8.26;90.96
11936;BME280;6027;48.576;9.180;2023-03-18T07:42:07;96561.34;;;8.48;90.11
11936;BME280;6027;48.576;9.180;2023-03-18T07:44:33;96562.88;;;8.42;90.96
11936;BME280;6027;48.576;9.180;2023-03-18T07:46:59;96569.72;;;8.51;92.55
11936;BME280;6027;48.576;9.180;2023-03-18T07:49:24;96572.66;;;8.56;89.27
11936;BME280;6027;48.576;9.180;2023-03-18T07:51:50;96571.34;;;8.75;82.00
11936;BME280;6027;48.576;9.180;2023-03-18T07:54:16;96574.59;;;9.00;84.05
11936;BME280;6027;48.576;9.180;2023-03-18T07:56:42;96578.09;;;9.30;81.82
11936;BME280;6027;48.576;9.180;2023-03-18T07:59:07;96575.19;;;9.40;81.80
11936;BME280;6027;48.576;9.180;2023-03-18T08:01:34;96573.06;;;9.64;80.67
11936;BME280;6027;48.576;9.180;2023-03-18T08:03:59;96567.22;;;9.84;78.63
11936;BME280;6027;48.576;9.180;2023-03-18T08:06:25;96573.81;;;10.09;76.45
11936;BME280;6027;48.576;9.180;2023-03-18T08:08:50;96568.03;;;10.35;76.11
11936;BME280;6027;48.576;9.180;2023-03-18T08:11:16;96565.59;;;10.55;70.70
11936;BME280;6027;48.576;9.180;2023-03-18T08:13:42;96570.47;;;10.79;70.47
11936;BME280;6027;48.576;9.180;2023-03-18T08:16:07;96565.75;;;10.96;69.74
11936;BME280;6027;48.576;9.180;2023-03-18T08:18:33;96577.28;;;11.16;67.31
11936;BME280;6027;48.576;9.180;2023-03-18T08:20:59;96574.75;;;11.29;65.15
11936;BME280;6027;48.576;9.180;2023-03-18T08:23:24;96571.63;;;11.54;65.17
11936;BME280;6027;48.576;9.180;2023-03-18T08:25:50;96578.66;;;11.74;62.85
11936;BME280;6027;48.576;9.180;2023-03-18T08:28:17;96580.03;;;11.92;60.06
11936;BME280;6027;48.576;9.180;2023-03-18T08:30:42;96575.19;;;12.08;56.82
11936;BME280;6027;48.576;9.180;2023-03-18T08:33:08;96577.28;;;12.26;58.02
11936;BME280;6027;48.576;9.180;2023-03-18T08:35:35;96577.94;;;12.48;56.28
11936;BME280;6027;48.576;9.180;2023-03-18T08:38:00;96571.22;;;12.65;56.17
11936;BME280;6027;48.576;9.180;2023-03-18T08:40:26;96560.41;;;12.73;55.37
11936;BME280;6027;48.576;9.180;2023-03-18T08:42:52;96560.44;;;12.87;53.61
11936;BME280;6027;48.576;9.180;2023-03-18T08:45:18;96576.56;;;13.05;54.62
11936;BME280;6027;48.576;9.180;2023-03-18T08:47:45;96572.50;;;13.16;54.51
11936;BME280;6027;48.576;9.180;2023-03-18T08:50:13;96571.66;;;13.35;53.79
11936;BME280;6027;48.576;9.180;2023-03-18T08:52:39;96571.25;;;13.38;50.66
11936;BME280;6027;48.576;9.180;2023-03-18T08:55:06;96560.78;;;13.56;50.53
11936;BME280;6027;48.576;9.180;2023-03-18T08:57:32;96566.66;;;13.71;50.45
11936;BME280;6027;48.576;9.180;2023-03-18T08:59:58;96567.91;;;13.69;48.89
11936;BME280;6027;48.576;9.180;2023-03-18T09:04:52;96561.56;;;13.70;49.47
11936;BME280;6027;48.576;9.180;2023-03-18T09:07:19;96565.78;;;13.91;48.81
11936;BME280;6027;48.576;9.180;2023-03-18T09:09:45;96561.88;;;13.93;46.49
11936;BME280;6027;48.576;9.180;2023-03-18T09:12:11;96564.34;;;13.95;46.01
11936;BME280;6027;48.576;9.180;2023-03-18T09:14:39;96557.31;;;14.13;45.30
11936;BME280;6027;48.576;9.180;2023-03-18T09:17:06;96560.28;;;14.30;44.28
11936;BME280;6027;48.576;9.180;2023-03-18T09:19:32;96554.47;;;14.46;44.39
11936;BME280;6027;48.576;9.180;2023-03-18T09:21:57;96555.66;;;14.57;44.49
11936;BME280;6027;48.576;9.180;2023-03-18T09:24:23;96553.69;;;14.77;44.05
11936;BME280;6027;48.576;9.180;2023-03-18T09:26:48;96544.75;;;14.90;44.87
11936;BME280;6027;48.576;9.180;2023-03-18T09:29:14;96539.09;;;14.80;42.51
11936;BME280;6027;48.576;9.180;2023-03-18T09:31:39;96547.53;;;15.02;42.44
11936;BME280;6027;48.576;9.180;2023-03-18T09:34:05;96553.56;;;15.15;41.91
11936;BME280;6027;48.576;9.180;2023-03-18T09:36:30;96544.84;;;15.27;41.54
11936;BME280;6027;48.576;9.180;2023-03-18T09:38:56;96551.22;;;15.26;41.91
11936;BME280;6027;48.576;9.180;2023-03-18T09:41:44;96549.81;;;14.98;40.05
11936;BME280;6027;48.576;9.180;2023-03-18T09:44:24;96548.72;;;15.06;39.80
11936;BME280;6027;48.576;9.180;2023-03-18T09:47:11;96545.28;;;15.24;41.17
11936;BME280;6027;48.576;9.180;2023-03-18T09:52:23;96547.63;;;15.38;39.80
11936;BME280;6027;48.576;9.180;2023-03-18T09:54:56;96540.78;;;15.42;41.02
11936;BME280;6027;48.576;9.180;2023-03-18T09:57:30;96533.81;;;15.41;38.29
11936;BME280;6027;48.576;9.180;2023-03-18T10:00:30;96531.84;;;15.37;38.84
11936;BME280;6027;48.576;9.180;2023-03-18T10:03:03;96530.28;;;15.47;39.61
11936;BME280;6027;48.576;9.180;2023-03-18T10:05:51;96536.34;;;15.36;39.45
11936;BME280;6027;48.576;9.180;2023-03-18T10:08:37;96530.94;;;15.43;40.36
11936;BME280;6027;48.576;9.180;2023-03-18T10:11:05;96529.59;;;15.34;40.23
11936;BME280;6027;48.576;9.180;2023-03-18T10:13:39;96528.81;;;15.51;40.28
11936;BME280;6027;48.576;9.180;2023-03-18T10:16:12;96524.56;;;15.44;40.20
11936;BME280;6027;48.576;9.180;2023-03-18T10:18:43;96531.63;;;15.38;40.10
11936;BME280;6027;48.576;9.180;2023-03-18T10:26:41;96520.47;;;15.66;40.78
11936;BME280;6027;48.576;9.180;2023-03-18T10:29:43;96532.59;;;15.80;40.21
11936;BME280;6027;48.576;9.180;2023-03-18T10:32:43;96527.00;;;15.70;41.14
11936;BME280;6027;48.576;9.180;2023-03-18T10:35:18;96529.63;;;15.52;40.26
11936;BME280;6027;48.576;9.180;2023-03-18T10:37:56;96518.84;;;15.40;39.87
11936;BME280;6027;48.576;9.180;2023-03-18T10:40:32;96523.63;;;15.38;40.15
11936;BME280;6027;48.576;9.180;2023-03-18T10:42:59;96527.97;;;15.33;40.93
11936;BME280;6027;48.576;9.180;2023-03-18T10:45:32;96525.16;;;15.28;40.64
11936;BME280;6027;48.576;9.180;2023-03-18T10:48:25;96520.13;;;15.38;41.64
11936;BME280;6027;48.576;9.180;2023-03-18T10:53:56;96518.94;;;15.52;41.68
11936;BME280;6027;48.576;9.180;2023-03-18T10:56:23;96518.66;;;15.60;42.06
11936;BME280;6027;48.576;9.180;2023-03-18T10:58:49;96509.34;;;15.69;42.08
11936;BME280;6027;48.576;9.180;2023-03-18T11:01:18;96519.56;;;15.91;40.73
11936;BME280;6027;48.576;9.180;2023-03-18T11:03:58;96501.28;;;16.06;43.43
11936;BME280;6027;48.576;9.180;2023-03-18T11:06:40;96505.63;;;16.18;40.32
11936;BME280;6027;48.576;9.180;2023-03-18T11:09:20;96502.47;;;16.10;40.12
11936;BME280;6027;48.576;9.180;2023-03-18T11:11:49;96500.50;;;16.17;40.34
11936;BME280;6027;48.576;9.180;2023-03-18T11:14:18;96499.84;;;16.21;39.19
11936;BME280;6027;48.576;9.180;2023-03-18T11:16:47;96493.00;;;16.26;38.64
11936;BME280;6027;48.576;9.180;2023-03-18T11:19:36;96498.88;;;16.46;40.02
11936;BME280;6027;48.576;9.180;2023-03-18T11:22:17;96500.28;;;16.48;39.32
11936;BME280;6027;48.576;9.180;2023-03-18T11:24:44;96489.47;;;16.43;39.63
11936;BME280;6027;48.576;9.180;2023-03-18T11:29:49;96478.50;;;16.75;39.37
11936;BME280;6027;48.576;9.180;2023-03-18T11:32:29;96477.59;;;16.81;39.24
11936;BME280;6027;48.576;9.180;2023-03-18T11:35:00;96484.66;;;16.75;39.07
11936;BME280;6027;48.576;9.180;2023-03-18T11:37:32;96474.56;;;16.77;39.94
11936;BME280;6027;48.576;9.180;2023-03-18T11:42:40;96464.00;;;16.82;38.57
11936;BME280;6027;48.576;9.180;2023-03-18T11:47:51;96467.03;;;16.98;35.19
11936;BME280;6027;48.576;9.180;2023-03-18T11:50:20;96459.94;;;17.03;37.41
11936;BME280;6027;48.576;9.180;2023-03-18T11:52:54;96456.94;;;17.11;36.57
11936;BME280;6027;48.576;9.180;2023-03-18T11:55:40;96453.19;;;17.12;35.51
11936;BME280;6027;48.576;9.180;2023-03-18T12:01:36;96449.69;;;17.23;35.54
11936;BME280;6027;48.576;9.180;2023-03-18T12:07:09;96446.28;;;17.40;35.95
11936;BME280;6027;48.576;9.180;2023-03-18T12:28:31;96427.41;;;18.26;34.26
11936;BME280;6027;48.576;9.180;2023-03-18T12:31:08;96424.44;;;18.28;35.17
11936;BME280;6027;48.576;9.180;2023-03-18T12:33:56;96415.63;;;18.44;35.86
11936;BME280;6027;48.576;9.180;2023-03-18T12:47:17;96417.06;;;18.35;33.58
11936;BME280;6027;48.576;9.180;2023-03-18T12:49:53;96416.44;;;18.45;36.48
11936;BME280;6027;48.576;9.180;2023-03-18T12:52:38;96407.59;;;18.44;33.42
11936;BME280;6027;48.576;9.180;2023-03-18T12:55:16;96402.97;;;18.56;35.26
11936;BME280;6027;48.576;9.180;2023-03-18T12:57:46;96399.47;;;18.56;33.05
11936;BME280;6027;48.576;9.180;2023-03-18T13:00:23;96394.78;;;18.63;32.71
11936;BME280;6027;48.576;9.180;2023-03-18T13:05:45;96394.84;;;18.85;34.33
11936;BME280;6027;48.576;9.180;2023-03-18T13:11:18;96395.41;;;18.87;33.73
11936;BME280;6027;48.576;9.180;2023-03-18T13:13:53;96388.13;;;18.82;31.96
11936;BME280;6027;48.576;9.180;2023-03-18T13:16:21;96383.63;;;18.88;33.25
11936;BME280;6027;48.576;9.180;2023-03-18T13:18:51;96392.19;;;18.85;32.37
11936;BME280;6027;48.576;9.180;2023-03-18T13:21:26;96396.53;;;18.91;33.21
11936;BME280;6027;48.576;9.180;2023-03-18T13:24:06;96387.63;;;19.07;32.69
11936;BME280;6027;48.576;9.180;2023-03-18T13:32:54;96374.88;;;19.14;32.67
11936;BME280;6027;48.576;9.180;2023-03-18T13:44:38;96383.69;;;19.31;31.03
11936;BME280;6027;48.576;9.180;2023-03-18T13:47:07;96369.59;;;19.41;32.71
11936;BME280;6027;48.576;9.180;2023-03-18T13:49:38;96380.06;;;19.43;34.00
11936;BME280;6027;48.576;9.180;2023-03-18T13:52:21;96375.13;;;19.35;31.97
11936;BME280;6027;48.576;9.180;2023-03-18T13:54:47;96369.19;;;19.32;30.42
11936;BME280;6027;48.576;9.180;2023-03-18T14:00:12;96366.09;;;19.41;32.31
11936;BME280;6027;48.576;9.180;2023-03-18T14:03:04;96370.94;;;19.22;33.23
11936;BME280;6027;48.576;9.180;2023-03-18T14:05:35;96370.31;;;19.15;32.66
11936;BME280;6027;48.576;9.180;2023-03-18T14:13:41;96364.81;;;19.05;34.51
11936;BME280;6027;48.576;9.180;2023-03-18T14:16:11;96373.78;;;18.93;32.92
11936;BME280;6027;48.576;9.180;2023-03-18T14:18:39;96378.34;;;18.93;32.67
11936;BME280;6027;48.576;9.180;2023-03-18T14:21:22;96372.84;;;18.66;34.29
11936;BME280;6027;48.576;9.180;2023-03-18T14:24:01;96366.63;;;18.49;33.43
11936;BME280;6027;48.576;9.180;2023-03-18T14:26:29;96372.66;;;18.56;34.31
11936;BME280;6027;48.576;9.180;2023-03-18T14:29:15;96369.72;;;18.57;33.76
11936;BME280;6027;48.576;9.180;2023-03-18T14:31:56;96363.91;;;18.60;33.49
11936;BME280;6027;48.576;9.180;2023-03-18T14:34:27;96363.19;;;18.65;34.66
11936;BME280;6027;48.576;9.180;2023-03-18T14:41:57;96364.28;;;18.52;33.45
11936;BME280;6027;48.576;9.180;2023-03-18T14:44:40;96353.47;;;18.47;33.71
11936;BME280;6027;48.576;9.180;2023-03-18T14:47:39;96356.47;;;18.51;33.56
11936;BME280;6027;48.576;9.180;2023-03-18T14:50:21;96350.78;;;18.47;33.99
11936;BME280;6027;48.576;9.180;2023-03-18T14:55:53;96339.66;;;18.55;34.75
11936;BME280;6027;48.576;9.180;2023-03-18T14:58:22;96344.38;;;18.48;33.39
11936;BME280;6027;48.576;9.180;2023-03-18T15:00:50;96344.47;;;18.53;33.33
11936;BME280;6027;48.576;9.180;2023-03-18T15:03:30;96341.78;;;18.53;34.11
11936;BME280;6027;48.576;9.180;2023-03-18T15:06:00;96349.81;;;18.53;34.47
11936;BME280;6027;48.576;9.180;2023-03-18T15:08:35;96342.47;;;18.60;34.50
11936;BME280;6027;48.576;9.180;2023-03-18T15:11:03;96338.00;;;18.66;35.14
11936;BME280;6027;48.576;9.180;2023-03-18T15:13:30;96338.72;;;18.61;33.97